createdAt,value
2022-12-24T00:05:30.081Z,70.05
2022-12-24T00:08:35.469Z,70.11
2022-12-24T00:14:08.936Z,69.87
2022-12-24T00:16:37.235Z,69.79
2022-12-24T00:21:54.359Z,69.27
2022-12-24T00:31:10.366Z,69.03
2022-12-24T00:35:29.784Z,68.79
2022-12-24T00:41:03.297Z,68.36
2022-12-24T00:44:08.592Z,68.45
2022-12-24T00:47:13.913Z,68.2
2022-12-24T00:50:56.351Z,68.47
2022-12-24T00:56:29.861Z,67.18
2022-12-24T01:01:26.480Z,66.31
2022-12-24T01:03:54.623Z,66.81
2022-12-24T01:06:59.886Z,66.84
2022-12-24T01:10:42.243Z,65.89
2022-12-24T01:13:10.483Z,66.47
2022-12-24T01:15:38.762Z,66.56
2022-12-24T01:25:15.371Z,66.45
2022-12-24T01:29:34.911Z,65.34
2022-12-24T01:35:08.332Z,66.02
2022-12-24T01:40:04.887Z,65.7
2022-12-24T01:43:10.124Z,65.57
2022-12-24T01:46:52.589Z,65.71
2022-12-24T01:49:57.839Z,65.63
2022-12-24T01:53:03.121Z,65.71
2022-12-24T01:55:31.362Z,65.79
2022-12-24T01:58:36.768Z,65.82
2022-12-24T02:06:38.494Z,65.87
2022-12-24T02:11:34.964Z,66.04
2022-12-24T02:14:40.270Z,65.66
2022-12-24T02:17:08.547Z,65.73
2022-12-24T02:29:13.411Z,65.76
2022-12-24T02:34:09.960Z,66.01
2022-12-24T02:38:29.316Z,65.92
2022-12-24T02:44:02.880Z,65.99
2022-12-24T02:48:59.433Z,66.13
2022-12-24T02:52:04.701Z,66.07
2022-12-24T02:55:09.984Z,65.96
2022-12-24T02:58:52.396Z,66.02
2022-12-24T03:01:57.757Z,66.26
2022-12-24T03:05:03.005Z,66.24
2022-12-24T03:08:08.295Z,66.19
2022-12-24T03:10:36.571Z,66.05
2022-12-24T03:16:10.125Z,65.98
2022-12-24T03:20:29.517Z,65.92
2022-12-24T03:24:11.906Z,66.03
2022-12-24T03:26:40.133Z,66
2022-12-24T03:29:08.390Z,65.96
2022-12-24T03:32:13.711Z,65.7
2022-12-24T03:36:33.112Z,66.15
2022-12-24T03:40:52.572Z,66.27
2022-12-24T03:44:22.637Z,66.46
2022-12-24T03:48:04.987Z,66.61
2022-12-24T03:58:35.048Z,67.81
2022-12-24T04:03:31.635Z,67.95
2022-12-24T04:12:47.479Z,66.59
2022-12-24T04:15:15.717Z,67.4
2022-12-24T04:17:43.964Z,67.57
2022-12-24T04:20:12.267Z,68.16
2022-12-24T04:23:17.534Z,68.43
2022-12-24T04:26:22.883Z,68.18
2022-12-24T04:32:33.452Z,68.84
2022-12-24T04:37:30.046Z,68.79
2022-12-24T04:41:14.797Z,68.87
2022-12-24T04:43:40.673Z,69.02
2022-12-24T04:46:08.815Z,69.02
2022-12-24T04:49:14.177Z,69.08
2022-12-24T04:52:48.312Z,68.72
2022-12-24T04:55:16.588Z,68.63
2022-12-24T04:58:21.906Z,68.87
2022-12-24T05:02:04.483Z,68.53
2022-12-24T05:09:28.999Z,67.95
2022-12-24T05:11:57.204Z,67.83
2022-12-24T05:15:02.664Z,67.8
2022-12-24T05:18:07.821Z,67.88
2022-12-24T05:21:13.161Z,67.66
2022-12-24T05:23:41.410Z,67.59
2022-12-24T05:26:46.743Z,67.75
2022-12-24T05:29:14.975Z,67.05
2022-12-24T05:31:43.184Z,67.02
2022-12-24T05:34:11.464Z,66.83
2022-12-24T05:37:16.784Z,66.68
2022-12-24T05:39:45.026Z,66.62
2022-12-24T05:42:13.280Z,66.99
2022-12-24T05:44:41.508Z,66.87
2022-12-24T05:47:09.760Z,66.62
2022-12-24T05:50:15.060Z,66.61
2022-12-24T05:52:43.300Z,66.62
2022-12-24T05:55:11.589Z,66.56
2022-12-24T05:57:39.796Z,66.41
2022-12-24T06:00:08.039Z,66.52
2022-12-24T06:03:13.364Z,66.61
2022-12-24T06:05:41.611Z,66.49
2022-12-24T06:08:46.902Z,66.41
2022-12-24T06:11:15.194Z,66.6
2022-12-24T06:13:35.252Z,66.3
2022-12-24T06:21:37.048Z,66.26
2022-12-24T06:26:33.527Z,66.25
2022-12-24T06:30:57.203Z,66.12
2022-12-24T06:35:49.480Z,66.14
2022-12-24T06:38:58.883Z,65.87
2022-12-24T06:42:04.157Z,65.87
2022-12-24T06:45:46.540Z,66.01
2022-12-24T06:48:14.749Z,66.07
2022-12-24T06:50:43.049Z,66.19
2022-12-24T06:53:11.275Z,66.13
2022-12-24T06:55:39.615Z,66.03
2022-12-24T07:00:36.100Z,66.31
2022-12-24T07:03:04.289Z,66.26
2022-12-24T07:06:09.575Z,66.2
2022-12-24T07:08:37.827Z,66.36
2022-12-24T07:13:34.466Z,66.5
2022-12-24T07:17:53.852Z,66.34
2022-12-24T07:20:59.064Z,66.29
2022-12-24T07:23:27.306Z,66.01
2022-12-24T07:25:47.344Z,66.01
2022-12-24T07:30:06.802Z,66
2022-12-24T07:34:26.193Z,65.75
2022-12-24T07:41:13.892Z,65.59
2022-12-24T07:45:33.407Z,65.58
2022-12-24T07:50:29.828Z,65.26
2022-12-24T07:54:49.252Z,66.13
2022-12-24T07:57:54.580Z,65.43
2022-12-24T08:07:10.500Z,65.81
2022-12-24T08:11:29.977Z,65.56
2022-12-24T08:19:31.728Z,66.01
2022-12-24T08:24:28.233Z,65.8
2022-12-24T08:30:38.867Z,65.67
2022-12-24T08:34:58.272Z,66.03
2022-12-24T08:39:38.390Z,66.19
2022-12-24T08:43:20.851Z,66.25
2022-12-24T08:47:03.162Z,66
2022-12-24T08:50:08.455Z,66.38
2022-12-24T08:53:50.799Z,65.94
2022-12-24T08:56:56.109Z,65.93
2022-12-24T09:02:29.795Z,65.88
2022-12-24T09:05:34.960Z,65.91
2022-12-24T09:08:40.320Z,65.75
2022-12-24T09:12:22.654Z,65.44
2022-12-24T09:15:27.963Z,65.43
2022-12-24T09:21:38.616Z,65.25
2022-12-24T09:26:35.076Z,65.26
2022-12-24T09:29:03.340Z,65.37
2022-12-24T09:32:08.725Z,65.19
2022-12-24T09:35:42.842Z,65.56
2022-12-24T09:38:11.070Z,65.23
2022-12-24T09:43:11.681Z,65.31
2022-12-24T09:47:31.059Z,64.95
2022-12-24T09:50:36.373Z,65.01
2022-12-24T09:58:38.209Z,64.62
2022-12-24T10:03:34.697Z,64.5
2022-12-24T10:08:31.180Z,64.87
2022-12-24T10:13:27.719Z,64.42
2022-12-24T10:20:15.404Z,64.16
2022-12-24T10:22:43.586Z,65.21
2022-12-24T10:25:11.890Z,64.34
2022-12-24T10:27:40.128Z,64.38
2022-12-24T10:30:11.811Z,64.87
2022-12-24T10:33:13.773Z,65.5
2022-12-24T10:35:33.730Z,65.82
2022-12-24T10:38:01.979Z,65.29
2022-12-24T10:41:07.296Z,65.78
2022-12-24T10:43:35.570Z,65.69
2022-12-24T10:48:32.051Z,65.65
2022-12-24T10:57:10.933Z,66.83
2022-12-24T11:02:07.599Z,66.83
2022-12-24T11:07:03.882Z,66.52
2022-12-24T11:10:09.147Z,66.8
2022-12-24T11:13:36.664Z,66.67
2022-12-24T11:16:56.831Z,66.26
2022-12-24T11:22:30.459Z,66.72
2022-12-24T11:27:26.951Z,65.95
2022-12-24T11:31:46.317Z,66.52
2022-12-24T11:34:14.625Z,65.83
2022-12-24T11:36:34.655Z,65.2
2022-12-24T11:39:02.923Z,65.06
2022-12-24T11:44:36.428Z,65.2
2022-12-24T11:49:32.990Z,65.05
2022-12-24T11:54:29.446Z,65.36
2022-12-24T11:56:57.698Z,65.62
2022-12-24T12:00:03.036Z,65.17
2022-12-24T12:03:08.373Z,65.79
2022-12-24T12:06:13.620Z,65.95
2022-12-24T12:08:41.889Z,65.77
2022-12-24T12:11:10.184Z,65.09
2022-12-24T12:14:15.404Z,65.03
2022-12-24T12:16:43.718Z,66.14
2022-12-24T12:19:15.112Z,65.73
2022-12-24T12:28:27.838Z,66.3
2022-12-24T12:34:38.487Z,65.58
2022-12-24T12:36:58.647Z,66.77
2022-12-24T12:40:40.890Z,67.16
2022-12-24T12:43:13.968Z,66.81
2022-12-24T12:46:14.468Z,66.4
2022-12-24T12:48:42.722Z,66.9
2022-12-24T12:55:30.368Z,66.54
2022-12-24T13:00:26.938Z,67.34
2022-12-24T13:02:55.340Z,67.81
2022-12-24T13:06:00.415Z,67.41
2022-12-24T13:09:05.756Z,66.45
2022-12-24T13:14:39.287Z,66.68
2022-12-24T13:20:12.891Z,66.05
2022-12-24T13:25:09.330Z,66.68
2022-12-24T13:28:14.656Z,68.42
2022-12-24T13:30:42.904Z,68.75
2022-12-24T13:33:11.142Z,68.02
2022-12-24T13:35:39.398Z,69
2022-12-24T13:42:10.678Z,69.51
2022-12-24T13:47:07.193Z,69.43
2022-12-24T13:50:12.494Z,68.1
2022-12-24T13:52:42.777Z,67.83
2022-12-24T13:59:31.868Z,69.63
2022-12-24T14:07:30.225Z,67.66
2022-12-24T14:10:35.647Z,68.06
2022-12-24T14:19:14.399Z,67.05
2022-12-24T14:23:33.835Z,67.56
2022-12-24T14:29:07.410Z,67.05
2022-12-24T14:32:12.846Z,67.09
2022-12-24T14:34:40.946Z,66.62
2022-12-24T14:37:00.993Z,67.22
2022-12-24T14:39:29.292Z,67
2022-12-24T14:44:28.499Z,67.41
2022-12-24T14:51:13.480Z,67.39
2022-12-24T14:53:41.686Z,67.25
2022-12-24T14:56:09.881Z,67.3
2022-12-24T14:59:15.237Z,67.99
2022-12-24T15:01:43.640Z,67.89
2022-12-24T15:04:11.748Z,68.36
2022-12-24T15:11:36.441Z,68.21
2022-12-24T15:16:33.040Z,68.02
2022-12-24T15:19:01.199Z,68.3
2022-12-24T15:22:06.539Z,68.39
2022-12-24T15:25:11.818Z,68.21
2022-12-24T15:28:17.142Z,68.31
2022-12-24T15:34:31.966Z,67.94
2022-12-24T15:42:17.259Z,67.77
2022-12-24T15:44:45.526Z,67.75
2022-12-24T15:47:13.781Z,67.5
2022-12-24T15:50:56.101Z,67.44
2022-12-24T15:54:38.520Z,67.94
2022-12-24T15:59:34.997Z,67.79
2022-12-24T16:02:40.447Z,67.66
2022-12-24T16:10:05.032Z,68.01
2022-12-24T16:13:10.348Z,67.7
2022-12-24T16:16:15.796Z,68.56
2022-12-24T16:19:20.979Z,68.27
2022-12-24T16:25:31.546Z,67.93
2022-12-24T16:30:28.094Z,68.2
2022-12-24T16:34:23.182Z,67.56
2022-12-24T16:39:27.948Z,67.97
2022-12-24T16:42:04.439Z,67.93
2022-12-24T16:45:54.962Z,68.01
2022-12-24T16:48:23.187Z,68.24
2022-12-24T16:52:05.562Z,68.23
2022-12-24T16:57:59.845Z,68.03
2022-12-24T17:01:42.368Z,67.92
2022-12-24T17:05:32.851Z,67.82
2022-12-24T17:08:01.133Z,68.08
2022-12-24T17:12:57.663Z,67.74
2022-12-24T17:16:48.317Z,67.47
2022-12-24T17:19:16.832Z,67.17
2022-12-24T17:23:07.123Z,67.45
2022-12-24T17:28:11.886Z,67.44
2022-12-24T17:31:23.830Z,67.73
2022-12-24T17:34:04.330Z,67.6
2022-12-24T17:37:04.042Z,67.97
2022-12-24T17:41:03.534Z,68.08
2022-12-24T17:43:03.738Z,67.86
2022-12-24T17:46:03.584Z,67.77
2022-12-24T17:49:10.476Z,68.28
2022-12-24T17:52:04.330Z,68.16
2022-12-24T17:56:03.562Z,68.08
2022-12-24T18:00:02.635Z,68.34
2022-12-24T18:02:10.489Z,68.6
2022-12-24T18:05:03.542Z,68.69
2022-12-24T18:07:04.078Z,68.72
2022-12-24T18:10:03.546Z,68.67
2022-12-24T18:12:03.597Z,68.82
2022-12-24T18:15:03.531Z,68.64
2022-12-24T18:17:03.988Z,68.7
2022-12-24T18:20:03.650Z,68.62
2022-12-24T18:23:04.521Z,68.43
2022-12-24T18:26:03.582Z,68.61
2022-12-24T18:28:04.325Z,68.74
2022-12-24T18:31:04.351Z,68.69
2022-12-24T18:34:03.623Z,68.85
2022-12-24T18:36:03.825Z,68.73
2022-12-24T18:39:03.934Z,68.91
2022-12-24T18:42:03.567Z,68.97
2022-12-24T18:44:03.596Z,68.82
2022-12-24T18:47:03.623Z,68.96
2022-12-24T18:50:03.582Z,68.88
2022-12-24T18:52:04.027Z,68.91
2022-12-24T18:54:04.133Z,68.88
2022-12-24T18:57:03.662Z,68.95
2022-12-24T19:00:03.595Z,69.21
2022-12-24T19:03:03.577Z,69.52
2022-12-24T19:05:03.560Z,69.19
2022-12-24T19:07:03.555Z,69.42
2022-12-24T19:09:03.823Z,69.2
2022-12-24T19:12:03.962Z,69.12
2022-12-24T19:14:10.242Z,69.68
2022-12-24T19:18:03.835Z,69.47
2022-12-24T19:21:03.584Z,69.16
2022-12-24T19:24:02.630Z,69.36
2022-12-24T19:26:10.199Z,69.23
2022-12-24T19:29:03.554Z,69.37
2022-12-24T19:31:03.635Z,69.19
2022-12-24T19:33:04.074Z,69.19
2022-12-24T19:36:04.006Z,69
2022-12-24T19:38:04.460Z,69.03
2022-12-24T19:41:03.579Z,69.15
2022-12-24T19:43:10.186Z,69.27
2022-12-24T19:46:03.587Z,69.22
2022-12-24T19:48:04.136Z,69.21
2022-12-24T19:51:03.615Z,69.18
2022-12-24T19:53:04.246Z,69.32
2022-12-24T19:56:03.580Z,69.35
2022-12-24T19:58:03.569Z,69.29
2022-12-24T20:00:03.569Z,69.37
2022-12-24T20:02:05.127Z,69.31
2022-12-24T20:05:03.591Z,69.35
2022-12-24T20:07:03.873Z,69.15
2022-12-24T20:10:03.636Z,69.29
2022-12-24T20:13:06.188Z,69.41
2022-12-24T20:15:05.455Z,69.47
2022-12-24T20:18:03.740Z,69.35
2022-12-24T20:20:03.894Z,69.29
2022-12-24T20:23:03.570Z,69.15
2022-12-24T20:26:04.441Z,69.29
2022-12-24T20:29:04.492Z,69.16
2022-12-24T20:32:03.977Z,69.15
2022-12-24T20:35:03.860Z,68.77
2022-12-24T20:38:03.965Z,68.74
2022-12-24T20:40:10.260Z,68.91
2022-12-24T20:43:03.597Z,68.94
2022-12-24T20:46:04.414Z,69.02
2022-12-24T20:49:17.358Z,68.97
2022-12-24T20:52:03.585Z,68.78
2022-12-24T20:54:03.619Z,69.16
2022-12-24T20:56:03.849Z,69.19
2022-12-24T20:59:10.130Z,68.89
2022-12-24T21:01:10.523Z,69.28
2022-12-24T21:04:04.817Z,69.18
2022-12-24T21:07:03.533Z,69.16
2022-12-24T21:09:10.656Z,69.06
2022-12-24T21:12:03.563Z,68.8
2022-12-24T21:15:03.550Z,69.11
2022-12-24T21:17:03.600Z,69.23
2022-12-24T21:19:10.649Z,68.92
2022-12-24T21:23:03.566Z,68.83
2022-12-24T21:26:17.199Z,68.71
2022-12-24T21:29:16.693Z,68.86
2022-12-24T21:34:03.544Z,68.78
2022-12-24T21:38:03.600Z,68.46
2022-12-24T21:40:10.825Z,68.94
2022-12-24T21:43:02.632Z,68.92
2022-12-24T21:45:16.753Z,69
2022-12-24T21:48:10.474Z,68.61
2022-12-24T21:51:03.575Z,68.86
2022-12-24T21:53:03.586Z,68.51
2022-12-24T21:56:10.157Z,68.63
2022-12-24T21:58:10.388Z,68.65
2022-12-24T22:01:04.447Z,68.62
2022-12-24T22:04:03.557Z,68.71
2022-12-24T22:08:10.775Z,68.58
2022-12-24T22:11:03.933Z,68.66
2022-12-24T22:14:03.645Z,68.75
2022-12-24T22:16:04.541Z,68.89
2022-12-24T22:19:02.663Z,68.67
2022-12-24T22:21:10.237Z,68.54
2022-12-24T22:24:04.191Z,68.57
2022-12-24T22:27:04.148Z,68.57
2022-12-24T22:30:03.556Z,68.47
2022-12-24T22:33:03.551Z,68.61
2022-12-24T22:35:03.847Z,68.71
2022-12-24T22:38:10.262Z,68.51
2022-12-24T22:42:16.696Z,68.56
2022-12-24T22:45:10.658Z,68.8
2022-12-24T22:48:04.109Z,68.62
2022-12-24T22:52:04.275Z,68.46
2022-12-24T22:54:10.768Z,68.53
2022-12-24T22:57:03.546Z,68.6
2022-12-24T22:59:03.548Z,68.53
2022-12-24T23:03:10.563Z,68.65
2022-12-24T23:06:02.731Z,68.77
2022-12-24T23:09:04.155Z,68.99
2022-12-24T23:12:03.584Z,68.84
2022-12-24T23:16:10.879Z,68.62
2022-12-24T23:19:03.713Z,68.6
2022-12-24T23:22:04.494Z,68.64
2022-12-24T23:25:02.657Z,68.51
2022-12-24T23:27:10.164Z,68.45
2022-12-24T23:30:03.579Z,68.91
2022-12-24T23:33:03.614Z,68.6
2022-12-24T23:36:02.683Z,68.83
2022-12-24T23:38:10.179Z,68.72
2022-12-24T23:41:04.308Z,68.54
2022-12-24T23:44:03.658Z,68.93
2022-12-24T23:46:04.172Z,68.73
2022-12-24T23:49:03.582Z,68.7
2022-12-24T23:51:03.627Z,68.56
2022-12-24T23:56:03.644Z,68.7
2022-12-24T23:59:10.700Z,68.61
